sensor_id;sensor_type;location;lat;lon;timestamp;pressure;altitude;pressure_sealevel;temperature;humidity
8366;BME280;4220;42.502;24.188;2023-02-01T00:02:17;95165.56;;;-0.02;100.00
8366;BME280;4220;42.502;24.188;2023-02-01T00:04:43;95204.44;;;0.18;100.00
8366;BME280;4220;42.502;24.188;2023-02-01T00:07:10;95197.59;;;0.17;100.00
8366;BME280;4220;42.502;24.188;2023-02-01T00:09:37;95189.59;;;0.18;100.00
8366;BME280;4220;42.502;24.188;2023-02-01T00:12:05;95188.78;;;0.18;100.00
8366;BME280;4220;42.502;24.188;2023-02-01T00:14:32;95164.25;;;0.03;100.00
8366;BME280;4220;42.502;24.188;2023-02-01T00:17:04;95178.47;;;0.08;100.00
8366;BME280;4220;42.502;24.188;2023-02-01T00:19:32;95192.06;;;0.20;100.00
8366;BME280;4220;42.502;24.188;2023-02-01T00:21:59;95188.94;;;0.16;100.00
8366;BME280;4220;42.502;24.188;2023-02-01T00:24:26;95196.59;;;0.18;100.00
8366;BME280;4220;42.502;24.188;2023-02-01T00:26:53;95212.13;;;0.19;100.00
8366;BME280;4220;42.502;24.188;2023-02-01T00:29:21;95196.78;;;0.16;100.00
8366;BME280;4220;42.502;24.188;2023-02-01T00:31:49;95198.59;;;0.24;100.00
8366;BME280;4220;42.502;24.188;2023-02-01T00:34:19;95189.78;;;0.17;100.00
8366;BME280;4220;42.502;24.188;2023-02-01T00:36:46;95207.03;;;0.18;100.00
8366;BME280;4220;42.502;24.188;2023-02-01T00:39:13;95197.13;;;0.21;100.00
8366;BME280;4220;42.502;24.188;2023-02-01T00:41:40;95194.69;;;0.20;100.00
8366;BME280;4220;42.502;24.188;2023-02-01T00:44:07;95156.13;;;-0.03;100.00
8366;BME280;4220;42.502;24.188;2023-02-01T00:46:35;95192.88;;;0.20;100.00
8366;BME280;4220;42.502;24.188;2023-02-01T00:49:02;95196.13;;;0.22;100.00
8366;BME280;4220;42.502;24.188;2023-02-01T00:51:29;95191.25;;;0.19;100.00
8366;BME280;4220;42.502;24.188;2023-02-01T00:53:56;95197.63;;;0.25;100.00
8366;BME280;4220;42.502;24.188;2023-02-01T00:56:23;95169.81;;;-0.01;100.00
8366;BME280;4220;42.502;24.188;2023-02-01T00:58:52;95209.84;;;0.24;100.00
8366;BME280;4220;42.502;24.188;2023-02-01T01:01:21;95208.38;;;0.22;100.00
8366;BME280;4220;42.502;24.188;2023-02-01T01:03:51;95215.53;;;0.20;100.00
8366;BME280;4220;42.502;24.188;2023-02-01T01:06:21;95213.06;;;0.18;100.00
8366;BME280;4220;42.502;24.188;2023-02-01T01:08:49;95202.94;;;0.15;100.00
8366;BME280;4220;42.502;24.188;2023-02-01T01:11:18;95188.25;;;0.06;100.00
8366;BME280;4220;42.502;24.188;2023-02-01T01:13:46;95192.84;;;0.12;100.00
8366;BME280;4220;42.502;24.188;2023-02-01T01:16:13;95196.25;;;0.13;100.00
8366;BME280;4220;42.502;24.188;2023-02-01T01:18:41;95177.97;;;0.05;100.00
8366;BME280;4220;42.502;24.188;2023-02-01T01:21:12;95177.66;;;0.08;100.00
8366;BME280;4220;42.502;24.188;2023-02-01T01:23:39;95170.66;;;0.08;100.00
8366;BME280;4220;42.502;24.188;2023-02-01T01:26:07;95167.44;;;0.14;100.00
8366;BME280;4220;42.502;24.188;2023-02-01T01:28:34;95170.00;;;0.06;100.00
8366;BME280;4220;42.502;24.188;2023-02-01T01:31:01;95173.47;;;0.15;100.00
8366;BME280;4220;42.502;24.188;2023-02-01T01:33:28;95178.81;;;0.13;100.00
8366;BME280;4220;42.502;24.188;2023-02-01T01:35:55;95172.13;;;0.11;100.00
8366;BME280;4220;42.502;24.188;2023-02-01T01:38:23;95181.13;;;0.16;100.00
8366;BME280;4220;42.502;24.188;2023-02-01T01:40:50;95195.91;;;0.08;100.00
8366;BME280;4220;42.502;24.188;2023-02-01T01:43:19;95166.59;;;0.14;100.00
8366;BME280;4220;42.502;24.188;2023-02-01T01:45:49;95169.38;;;0.12;100.00
8366;BME280;4220;42.502;24.188;2023-02-01T01:48:18;95178.47;;;0.08;100.00
8366;BME280;4220;42.502;24.188;2023-02-01T01:50:50;95174.06;;;0.09;100.00
8366;BME280;4220;42.502;24.188;2023-02-01T01:53:22;95169.22;;;0.14;100.00
8366;BME280;4220;42.502;24.188;2023-02-01T01:55:53;95177.69;;;0.16;100.00
8366;BME280;4220;42.502;24.188;2023-02-01T01:58:25;95171.81;;;0.14;100.00
8366;BME280;4220;42.502;24.188;2023-02-01T02:00:53;95090.19;;;-0.54;100.00
8366;BME280;4220;42.502;24.188;2023-02-01T02:03:22;95194.69;;;0.20;100.00
8366;BME280;4220;42.502;24.188;2023-02-01T02:05:52;95202.59;;;0.10;100.00
8366;BME280;4220;42.502;24.188;2023-02-01T02:08:20;95235.06;;;0.16;100.00
8366;BME280;4220;42.502;24.188;2023-02-01T02:10:52;95223.38;;;0.20;100.00
8366;BME280;4220;42.502;24.188;2023-02-01T02:13:30;95231.19;;;0.20;100.00
8366;BME280;4220;42.502;24.188;2023-02-01T02:16:09;95215.03;;;0.16;100.00
8366;BME280;4220;42.502;24.188;2023-02-01T02:18:46;95240.81;;;0.27;100.00
8366;BME280;4220;42.502;24.188;2023-02-01T02:21:18;95239.69;;;0.30;100.00
8366;BME280;4220;42.502;24.188;2023-02-01T02:27:18;95229.91;;;0.24;100.00
8366;BME280;4220;42.502;24.188;2023-02-01T02:30:22;95245.72;;;0.30;100.00
8366;BME280;4220;42.502;24.188;2023-02-01T02:33:23;95235.16;;;0.32;100.00
8366;BME280;4220;42.502;24.188;2023-02-01T02:36:01;95236.13;;;0.31;100.00
8366;BME280;4220;42.502;24.188;2023-02-01T02:38:32;95243.66;;;0.34;100.00
8366;BME280;4220;42.502;24.188;2023-02-01T02:41:08;95237.59;;;0.33;100.00
8366;BME280;4220;42.502;24.188;2023-02-01T02:43:42;95238.44;;;0.34;100.00
8366;BME280;4220;42.502;24.188;2023-02-01T02:46:35;95242.66;;;0.35;100.00
8366;BME280;4220;42.502;24.188;2023-02-01T02:49:26;95234.66;;;0.28;100.00
8366;BME280;4220;42.502;24.188;2023-02-01T02:51:58;95238.13;;;0.37;100.00
8366;BME280;4220;42.502;24.188;2023-02-01T02:54:52;95238.13;;;0.37;100.00
8366;BME280;4220;42.502;24.188;2023-02-01T02:57:26;95230.09;;;0.30;100.00
8366;BME280;4220;42.502;24.188;2023-02-01T03:00:18;95229.44;;;0.28;100.00
8366;BME280;4220;42.502;24.188;2023-02-01T03:03:04;95226.00;;;0.28;100.00
8366;BME280;4220;42.502;24.188;2023-02-01T03:05:50;95220.94;;;0.26;100.00
8366;BME280;4220;42.502;24.188;2023-02-01T03:08:18;95220.59;;;0.21;100.00
8366;BME280;4220;42.502;24.188;2023-02-01T03:10:53;95225.09;;;0.11;100.00
8366;BME280;4220;42.502;24.188;2023-02-01T03:13:28;95216.81;;;0.16;100.00
8366;BME280;4220;42.502;24.188;2023-02-01T03:16:00;95136.56;;;-0.32;100.00
8366;BME280;4220;42.502;24.188;2023-02-01T03:18:33;95220.72;;;0.12;100.00
8366;BME280;4220;42.502;24.188;2023-02-01T03:21:06;95216.22;;;-0.04;100.00
8366;BME280;4220;42.502;24.188;2023-02-01T03:23:36;95223.78;;;0.07;100.00
8366;BME280;4220;42.502;24.188;2023-02-01T03:26:04;95223.09;;;0.05;100.00
8366;BME280;4220;42.502;24.188;2023-02-01T03:28:34;95221.63;;;0.03;100.00
8366;BME280;4220;42.502;24.188;2023-02-01T03:31:01;95215.09;;;-0.02;100.00
8366;BME280;4220;42.502;24.188;2023-02-01T03:33:29;95218.00;;;-0.05;100.00
8366;BME280;4220;42.502;24.188;2023-02-01T03:36:03;95224.69;;;-0.02;100.00
8366;BME280;4220;42.502;24.188;2023-02-01T03:38:38;95225.38;;;0.00;100.00
8366;BME280;4220;42.502;24.188;2023-02-01T03:41:11;95240.66;;;-0.05;100.00
8366;BME280;4220;42.502;24.188;2023-02-01T03:43:49;95246.66;;;-0.05;100.00
8366;BME280;4220;42.502;24.188;2023-02-01T03:46:22;95240.50;;;-0.04;100.00
8366;BME280;4220;42.502;24.188;2023-02-01T03:48:51;95229.75;;;-0.01;100.00
8366;BME280;4220;42.502;24.188;2023-02-01T03:51:20;95205.38;;;-0.17;100.00
8366;BME280;4220;42.502;24.188;2023-02-01T03:53:50;95240.31;;;-0.02;100.00
8366;BME280;4220;42.502;24.188;2023-02-01T03:56:21;95248.22;;;0.06;100.00
8366;BME280;4220;42.502;24.188;2023-02-01T03:58:49;95254.09;;;0.08;100.00
8366;BME280;4220;42.502;24.188;2023-02-01T04:01:25;95247.25;;;0.07;100.00
8366;BME280;4220;42.502;24.188;2023-02-01T04:03:53;95183.75;;;-0.35;100.00
8366;BME280;4220;42.502;24.188;2023-02-01T04:06:20;95258.81;;;0.13;100.00
8366;BME280;4220;42.502;24.188;2023-02-01T04:08:47;95211.09;;;-0.14;100.00
8366;BME280;4220;42.502;24.188;2023-02-01T04:11:15;95259.88;;;0.20;100.00
8366;BME280;4220;42.502;24.188;2023-02-01T04:13:42;95264.56;;;0.16;100.00
8366;BME280;4220;42.502;24.188;2023-02-01T04:16:09;95254.44;;;0.13;100.00
8366;BME280;4220;42.502;24.188;2023-02-01T04:18:36;95261.91;;;0.08;100.00
8366;BME280;4220;42.502;24.188;2023-02-01T04:21:03;95256.31;;;0.03;100.00
8366;BME280;4220;42.502;24.188;2023-02-01T04:23:30;95248.72;;;0.10;100.00
8366;BME280;4220;42.502;24.188;2023-02-01T04:26:01;95246.38;;;-0.02;100.00
8366;BME280;4220;42.502;24.188;2023-02-01T04:28:30;95250.16;;;0.04;100.00
8366;BME280;4220;42.502;24.188;2023-02-01T04:30:57;95253.94;;;0.10;100.00
8366;BME280;4220;42.502;24.188;2023-02-01T04:33:24;95210.75;;;-0.19;100.00
8366;BME280;4220;42.502;24.188;2023-02-01T04:35:51;95244.13;;;0.04;100.00
8366;BME280;4220;42.502;24.188;2023-02-01T04:38:18;95238.25;;;0.02;100.00
8366;BME280;4220;42.502;24.188;2023-02-01T04:40:47;95245.06;;;0.03;100.00
8366;BME280;4220;42.502;24.188;2023-02-01T04:43:14;95239.06;;;0.02;100.00
8366;BME280;4220;42.502;24.188;2023-02-01T04:45:46;95236.47;;;0.02;100.00
8366;BME280;4220;42.502;24.188;2023-02-01T04:48:14;95243.47;;;0.02;100.00
8366;BME280;4220;42.502;24.188;2023-02-01T04:50:41;95246.88;;;0.02;100.00
8366;BME280;4220;42.502;24.188;2023-02-01T04:53:08;95264.81;;;0.05;100.00
8366;BME280;4220;42.502;24.188;2023-02-01T04:55:34;95255.66;;;0.01;100.00
8366;BME280;4220;42.502;24.188;2023-02-01T04:58:01;95245.25;;;0.01;100.00
8366;BME280;4220;42.502;24.188;2023-02-01T05:00:28;95246.56;;;0.05;100.00
8366;BME280;4220;42.502;24.188;2023-02-01T05:02:56;95242.69;;;0.09;100.00
8366;BME280;4220;42.502;24.188;2023-02-01T05:05:23;95232.88;;;0.03;100.00
8366;BME280;4220;42.502;24.188;2023-02-01T05:07:50;95235.53;;;0.11;100.00
8366;BME280;4220;42.502;24.188;2023-02-01T05:10:17;95245.97;;;0.11;100.00
8366;BME280;4220;42.502;24.188;2023-02-01T05:12:44;95242.38;;;0.12;100.00
8366;BME280;4220;42.502;24.188;2023-02-01T05:15:28;95249.22;;;0.13;100.00
8366;BME280;4220;42.502;24.188;2023-02-01T05:17:56;95252.00;;;0.12;100.00
8366;BME280;4220;42.502;24.188;2023-02-01T05:20:23;95245.31;;;0.09;100.00
8366;BME280;4220;42.502;24.188;2023-02-01T05:22:50;95249.69;;;0.09;100.00
8366;BME280;4220;42.502;24.188;2023-02-01T05:25:17;95246.13;;;0.10;100.00
8366;BME280;4220;42.502;24.188;2023-02-01T05:27:44;95245.59;;;0.06;100.00
8366;BME280;4220;42.502;24.188;2023-02-01T05:30:12;95250.66;;;0.08;100.00
8366;BME280;4220;42.502;24.188;2023-02-01T05:32:39;95256.19;;;0.05;100.00
8366;BME280;4220;42.502;24.188;2023-02-01T05:35:08;95252.09;;;0.02;100.00
8366;BME280;4220;42.502;24.188;2023-02-01T05:37:35;95258.63;;;0.06;100.00
8366;BME280;4220;42.502;24.188;2023-02-01T05:40:02;95264.50;;;0.08;100.00
8366;BME280;4220;42.502;24.188;2023-02-01T05:42:29;95266.28;;;0.08;100.00
8366;BME280;4220;42.502;24.188;2023-02-01T05:44:56;95258.47;;;0.08;100.00
8366;BME280;4220;42.502;24.188;2023-02-01T05:47:23;95256.56;;;0.10;100.00
8366;BME280;4220;42.502;24.188;2023-02-01T05:49:50;95261.59;;;0.11;100.00
8366;BME280;4220;42.502;24.188;2023-02-01T05:52:18;95255.09;;;0.15;100.00
8366;BME280;4220;42.502;24.188;2023-02-01T05:54:45;95256.09;;;0.14;100.00
8366;BME280;4220;42.502;24.188;2023-02-01T05:57:12;95255.25;;;0.14;100.00
8366;BME280;4220;42.502;24.188;2023-02-01T05:59:39;95260.84;;;0.19;100.00
8366;BME280;4220;42.502;24.188;2023-02-01T06:02:10;95261.50;;;0.21;100.00
8366;BME280;4220;42.502;24.188;2023-02-01T06:04:37;95269.47;;;0.19;100.00
8366;BME280;4220;42.502;24.188;2023-02-01T06:07:04;95269.97;;;0.23;100.00
8366;BME280;4220;42.502;24.188;2023-02-01T06:09:34;95272.44;;;0.24;100.00
8366;BME280;4220;42.502;24.188;2023-02-01T06:12:01;95259.53;;;0.23;100.00
8366;BME280;4220;42.502;24.188;2023-02-01T06:14:28;95258.59;;;0.24;100.00
8366;BME280;4220;42.502;24.188;2023-02-01T06:16:55;95274.59;;;0.29;100.00
8366;BME280;4220;42.502;24.188;2023-02-01T06:19:22;95268.25;;;0.31;100.00
8366;BME280;4220;42.502;24.188;2023-02-01T06:21:49;95267.44;;;0.31;100.00
8366;BME280;4220;42.502;24.188;2023-02-01T06:24:16;95264.66;;;0.32;100.00
8366;BME280;4220;42.502;24.188;2023-02-01T06:26:44;95272.84;;;0.37;100.00
8366;BME280;4220;42.502;24.188;2023-02-01T06:29:11;95276.13;;;0.39;100.00
8366;BME280;4220;42.502;24.188;2023-02-01T06:31:38;95267.47;;;0.39;100.00
8366;BME280;4220;42.502;24.188;2023-02-01T06:34:05;95278.88;;;0.38;100.00
8366;BME280;4220;42.502;24.188;2023-02-01T06:36:31;95265.00;;;0.37;100.00
8366;BME280;4220;42.502;24.188;2023-02-01T06:38:58;95283.50;;;0.44;100.00
8366;BME280;4220;42.502;24.188;2023-02-01T06:41:25;95263.28;;;0.46;100.00
8366;BME280;4220;42.502;24.188;2023-02-01T06:43:54;95289.56;;;0.52;100.00
8366;BME280;4220;42.502;24.188;2023-02-01T06:46:21;95273.66;;;0.38;100.00
8366;BME280;4220;42.502;24.188;2023-02-01T06:48:48;95288.72;;;0.52;100.00
8366;BME280;4220;42.502;24.188;2023-02-01T06:51:19;95290.91;;;0.56;100.00
8366;BME280;4220;42.502;24.188;2023-02-01T06:53:47;95291.91;;;0.63;100.00
8366;BME280;4220;42.502;24.188;2023-02-01T06:56:13;95295.53;;;0.71;100.00
8366;BME280;4220;42.502;24.188;2023-02-01T06:58:40;95296.19;;;0.73;100.00
8366;BME280;4220;42.502;24.188;2023-02-01T07:01:09;95294.88;;;0.77;100.00
8366;BME280;4220;42.502;24.188;2023-02-01T07:03:37;95296.22;;;0.81;100.00
8366;BME280;4220;42.502;24.188;2023-02-01T07:06:04;95275.34;;;0.81;100.00
8366;BME280;4220;42.502;24.188;2023-02-01T07:08:34;95298.50;;;0.84;100.00
8366;BME280;4220;42.502;24.188;2023-02-01T07:11:02;95280.22;;;0.84;100.00
8366;BME280;4220;42.502;24.188;2023-02-01T07:13:29;95299.31;;;0.84;100.00
8366;BME280;4220;42.502;24.188;2023-02-01T07:15:58;95280.56;;;0.81;100.00
8366;BME280;4220;42.502;24.188;2023-02-01T07:18:27;95296.72;;;0.84;100.00
8366;BME280;4220;42.502;24.188;2023-02-01T07:20:54;95314.50;;;0.89;100.00
8366;BME280;4220;42.502;24.188;2023-02-01T07:23:22;95269.91;;;0.74;100.00
8366;BME280;4220;42.502;24.188;2023-02-01T07:25:52;95302.81;;;1.01;100.00
8366;BME280;4220;42.502;24.188;2023-02-01T07:28:19;95315.72;;;1.02;100.00
8366;BME280;4220;42.502;24.188;2023-02-01T07:30:46;95299.56;;;1.07;100.00
8366;BME280;4220;42.502;24.188;2023-02-01T07:33:18;95304.00;;;1.14;100.00
8366;BME280;4220;42.502;24.188;2023-02-01T07:35:47;95308.06;;;1.09;100.00
8366;BME280;4220;42.502;24.188;2023-02-01T07:38:14;95336.19;;;1.15;100.00
8366;BME280;4220;42.502;24.188;2023-02-01T07:40:41;95279.00;;;0.96;100.00
8366;BME280;4220;42.502;24.188;2023-02-01T07:43:08;95289.75;;;0.93;100.00
8366;BME280;4220;42.502;24.188;2023-02-01T07:45:36;95326.41;;;1.25;100.00
8366;BME280;4220;42.502;24.188;2023-02-01T07:48:03;95323.16;;;1.31;100.00
8366;BME280;4220;42.502;24.188;2023-02-01T07:50:30;95327.59;;;1.39;100.00
8366;BME280;4220;42.502;24.188;2023-02-01T07:53:00;95308.78;;;1.27;100.00
8366;BME280;4220;42.502;24.188;2023-02-01T07:55:27;95292.25;;;1.18;100.00
8366;BME280;4220;42.502;24.188;2023-02-01T07:57:57;95320.91;;;1.44;100.00
8366;BME280;4220;42.502;24.188;2023-02-01T08:00:24;95323.19;;;1.55;100.00
8366;BME280;4220;42.502;24.188;2023-02-01T08:03:08;95334.34;;;1.57;100.00
8366;BME280;4220;42.502;24.188;2023-02-01T08:05:35;95327.94;;;1.60;100.00
8366;BME280;4220;42.502;24.188;2023-02-01T08:08:04;95335.66;;;1.69;100.00
8366;BME280;4220;42.502;24.188;2023-02-01T08:10:30;95333.69;;;1.71;100.00
8366;BME280;4220;42.502;24.188;2023-02-01T08:12:58;95331.09;;;1.71;100.00
8366;BME280;4220;42.502;24.188;2023-02-01T08:15:25;95302.31;;;1.47;100.00
8366;BME280;4220;42.502;24.188;2023-02-01T08:17:53;95342.50;;;1.70;100.00
8366;BME280;4220;42.502;24.188;2023-02-01T08:20:21;95345.31;;;1.77;100.00
8366;BME280;4220;42.502;24.188;2023-02-01T08:22:49;95340.28;;;1.91;100.00
8366;BME280;4220;42.502;24.188;2023-02-01T08:25:17;95333.56;;;1.89;100.00
8366;BME280;4220;42.502;24.188;2023-02-01T08:27:44;95344.19;;;1.95;100.00
8366;BME280;4220;42.502;24.188;2023-02-01T08:30:12;95353.31;;;1.99;100.00
8366;BME280;4220;42.502;24.188;2023-02-01T08:32:39;95345.00;;;2.04;100.00
8366;BME280;4220;42.502;24.188;2023-02-01T08:35:06;95345.16;;;2.03;100.00
8366;BME280;4220;42.502;24.188;2023-02-01T08:37:34;95340.25;;;2.08;100.00
8366;BME280;4220;42.502;24.188;2023-02-01T08:40:02;95347.44;;;1.97;100.00
8366;BME280;4220;42.502;24.188;2023-02-01T08:42:30;95357.72;;;1.99;100.00
8366;BME280;4220;42.502;24.188;2023-02-01T08:45:14;95357.91;;;1.97;100.00
8366;BME280;4220;42.502;24.188;2023-02-01T08:47:41;95362.16;;;2.07;100.00
8366;BME280;4220;42.502;24.188;2023-02-01T08:50:09;95362.84;;;2.09;100.00
8366;BME280;4220;42.502;24.188;2023-02-01T08:52:36;95359.53;;;2.07;100.00
8366;BME280;4220;42.502;24.188;2023-02-01T08:55:04;95344.19;;;2.04;100.00
8366;BME280;4220;42.502;24.188;2023-02-01T08:57:32;95353.34;;;2.08;100.00
8366;BME280;4220;42.502;24.188;2023-02-01T08:59:59;95369.69;;;2.10;100.00
8366;BME280;4220;42.502;24.188;2023-02-01T09:02:26;95363.00;;;2.15;100.00
8366;BME280;4220;42.502;24.188;2023-02-01T09:04:53;95354.19;;;2.16;100.00
8366;BME280;4220;42.502;24.188;2023-02-01T09:07:20;95391.78;;;2.15;100.00
8366;BME280;4220;42.502;24.188;2023-02-01T09:09:47;95362.03;;;2.16;100.00
8366;BME280;4220;42.502;24.188;2023-02-01T09:12:14;95360.84;;;2.19;100.00
8366;BME280;4220;42.502;24.188;2023-02-01T09:14:42;95364.63;;;2.16;100.00
8366;BME280;4220;42.502;24.188;2023-02-01T09:17:09;95358.06;;;2.12;100.00
8366;BME280;4220;42.502;24.188;2023-02-01T09:19:36;95367.41;;;2.23;100.00
8366;BME280;4220;42.502;24.188;2023-02-01T09:22:02;95380.00;;;2.19;100.00
8366;BME280;4220;42.502;24.188;2023-02-01T09:24:29;95366.75;;;2.21;100.00
8366;BME280;4220;42.502;24.188;2023-02-01T09:26:56;95371.81;;;2.22;100.00
8366;BME280;4220;42.502;24.188;2023-02-01T09:29:23;95363.47;;;2.19;100.00
8366;BME280;4220;42.502;24.188;2023-02-01T09:31:51;95378.84;;;2.22;100.00
8366;BME280;4220;42.502;24.188;2023-02-01T09:34:18;95393.91;;;2.20;100.00
8366;BME280;4220;42.502;24.188;2023-02-01T09:36:45;95371.16;;;2.20;100.00
8366;BME280;4220;42.502;24.188;2023-02-01T09:39:12;95362.16;;;2.15;100.00
8366;BME280;4220;42.502;24.188;2023-02-01T09:41:48;95353.50;;;2.22;100.00
8366;BME280;4220;42.502;24.188;2023-02-01T09:44:36;95367.91;;;2.18;100.00
8366;BME280;4220;42.502;24.188;2023-02-01T09:47:11;95356.28;;;2.05;100.00
8366;BME280;4220;42.502;24.188;2023-02-01T09:49:45;95367.91;;;2.18;100.00
8366;BME280;4220;42.502;24.188;2023-02-01T09:52:14;95359.72;;;2.29;100.00
8366;BME280;4220;42.502;24.188;2023-02-01T09:54:46;95338.63;;;2.31;100.00
8366;BME280;4220;42.502;24.188;2023-02-01T09:57:18;95357.09;;;2.29;100.00
8366;BME280;4220;42.502;24.188;2023-02-01T09:59:48;95350.38;;;2.27;100.00
8366;BME280;4220;42.502;24.188;2023-02-01T10:02:22;95345.00;;;2.28;100.00
8366;BME280;4220;42.502;24.188;2023-02-01T10:04:50;95339.28;;;2.33;100.00
8366;BME280;4220;42.502;24.188;2023-02-01T10:07:25;95380.16;;;2.42;100.00
8366;BME280;4220;42.502;24.188;2023-02-01T10:10:00;95358.41;;;2.49;100.00
8366;BME280;4220;42.502;24.188;2023-02-01T10:12:50;95340.72;;;2.51;100.00
8366;BME280;4220;42.502;24.188;2023-02-01T10:15:29;95339.56;;;2.62;100.00
8366;BME280;4220;42.502;24.188;2023-02-01T10:18:18;95361.81;;;2.66;100.00
8366;BME280;4220;42.502;24.188;2023-02-01T10:20:54;95329.75;;;2.56;100.00
8366;BME280;4220;42.502;24.188;2023-02-01T10:23:43;95333.19;;;2.64;100.00
8366;BME280;4220;42.502;24.188;2023-02-01T10:26:19;95329.09;;;2.62;100.00
8366;BME280;4220;42.502;24.188;2023-02-01T10:28:49;95339.88;;;2.67;100.00
8366;BME280;4220;42.502;24.188;2023-02-01T10:31:17;95321.06;;;2.63;100.00
8366;BME280;4220;42.502;24.188;2023-02-01T10:33:47;95319.72;;;2.76;100.00
8366;BME280;4220;42.502;24.188;2023-02-01T10:36:21;95316.75;;;2.87;100.00
8366;BME280;4220;42.502;24.188;2023-02-01T10:38:48;95305.78;;;2.83;100.00
8366;BME280;4220;42.502;24.188;2023-02-01T10:41:18;95302.50;;;2.89;100.00
8366;BME280;4220;42.502;24.188;2023-02-01T10:43:48;95299.19;;;2.95;100.00
8366;BME280;4220;42.502;24.188;2023-02-01T10:46:16;95299.47;;;3.08;100.00
8366;BME280;4220;42.502;24.188;2023-02-01T10:48:43;95298.53;;;3.32;100.00
8366;BME280;4220;42.502;24.188;2023-02-01T10:51:15;95301.13;;;3.40;100.00
8366;BME280;4220;42.502;24.188;2023-02-01T10:53:49;95243.28;;;3.11;100.00
8366;BME280;4220;42.502;24.188;2023-02-01T10:56:22;95286.84;;;3.43;100.00
8366;BME280;4220;42.502;24.188;2023-02-01T10:58:49;95290.97;;;3.68;100.00
8366;BME280;4220;42.502;24.188;2023-02-01T11:01:19;95275.09;;;3.84;100.00
8366;BME280;4220;42.502;24.188;2023-02-01T11:03:52;95293.63;;;4.05;100.00
8366;BME280;4220;42.502;24.188;2023-02-01T11:06:27;95289.63;;;4.32;100.00
8366;BME280;4220;42.502;24.188;2023-02-01T11:08:56;95274.19;;;4.51;100.00
8366;BME280;4220;42.502;24.188;2023-02-01T11:11:24;95251.81;;;4.55;100.00
8366;BME280;4220;42.502;24.188;2023-02-01T11:13:53;95276.06;;;4.72;100.00
8366;BME280;4220;42.502;24.188;2023-02-01T11:16:21;95275.97;;;4.51;98.39
8366;BME280;4220;42.502;24.188;2023-02-01T11:18:54;95236.50;;;4.44;99.06
8366;BME280;4220;42.502;24.188;2023-02-01T11:21:23;95264.84;;;4.63;98.11
8366;BME280;4220;42.502;24.188;2023-02-01T11:23:50;95207.56;;;4.01;97.10
8366;BME280;4220;42.502;24.188;2023-02-01T11:26:21;95271.00;;;4.56;97.21
8366;BME280;4220;42.502;24.188;2023-02-01T11:28:53;95255.81;;;4.66;98.07
8366;BME280;4220;42.502;24.188;2023-02-01T11:31:20;95251.81;;;4.70;98.23
8366;BME280;4220;42.502;24.188;2023-02-01T11:33:52;95257.31;;;4.90;97.00
8366;BME280;4220;42.502;24.188;2023-02-01T11:36:24;95251.09;;;4.76;97.88
8366;BME280;4220;42.502;24.188;2023-02-01T11:38:54;95235.75;;;4.94;97.50
8366;BME280;4220;42.502;24.188;2023-02-01T11:41:23;95233.22;;;5.01;97.06
8366;BME280;4220;42.502;24.188;2023-02-01T11:43:54;95264.00;;;5.07;95.65
8366;BME280;4220;42.502;24.188;2023-02-01T11:46:24;95231.78;;;4.98;96.85
8366;BME280;4220;42.502;24.188;2023-02-01T11:48:55;95260.56;;;4.92;96.99
8366;BME280;4220;42.502;24.188;2023-02-01T11:51:38;95229.88;;;4.92;96.44
8366;BME280;4220;42.502;24.188;2023-02-01T11:54:29;95245.09;;;4.97;96.17
8366;BME280;4220;42.502;24.188;2023-02-01T11:57:08;95230.78;;;4.85;95.89
8366;BME280;4220;42.502;24.188;2023-02-01T11:59:57;95237.19;;;4.97;96.80
8366;BME280;4220;42.502;24.188;2023-02-01T12:05:29;95234.84;;;5.02;95.76
8366;BME280;4220;42.502;24.188;2023-02-01T12:08:22;95226.31;;;5.00;96.53
8366;BME280;4220;42.502;24.188;2023-02-01T12:11:04;95237.00;;;5.13;96.13
8366;BME280;4220;42.502;24.188;2023-02-01T12:13:45;95254.81;;;5.32;94.40
8366;BME280;4220;42.502;24.188;2023-02-01T12:16:23;95259.25;;;5.32;93.38
8366;BME280;4220;42.502;24.188;2023-02-01T12:19:12;95269.50;;;5.26;93.30
8366;BME280;4220;42.502;24.188;2023-02-01T12:21:55;95235.38;;;5.12;93.83
8366;BME280;4220;42.502;24.188;2023-02-01T12:24:36;95232.28;;;5.23;93.78
8366;BME280;4220;42.502;24.188;2023-02-01T12:27:22;95233.78;;;5.32;94.31
8366;BME280;4220;42.502;24.188;2023-02-01T12:30:07;95224.16;;;5.60;94.64
8366;BME280;4220;42.502;24.188;2023-02-01T12:32:52;95220.78;;;5.66;92.56
8366;BME280;4220;42.502;24.188;2023-02-01T12:35:44;95229.88;;;5.85;91.70
8366;BME280;4220;42.502;24.188;2023-02-01T12:38:28;95224.16;;;6.03;90.49
8366;BME280;4220;42.502;24.188;2023-02-01T12:41:08;95219.50;;;6.26;90.26
8366;BME280;4220;42.502;24.188;2023-02-01T12:43:42;95225.97;;;6.23;88.29
8366;BME280;4220;42.502;24.188;2023-02-01T12:46:14;95219.81;;;6.44;88.54
8366;BME280;4220;42.502;24.188;2023-02-01T12:48:50;95234.88;;;6.50;87.73
8366;BME280;4220;42.502;24.188;2023-02-01T12:51:23;95211.75;;;6.18;88.04
8366;BME280;4220;42.502;24.188;2023-02-01T12:53:53;95225.00;;;6.31;89.03
8366;BME280;4220;42.502;24.188;2023-02-01T12:56:28;95235.88;;;6.21;87.21
8366;BME280;4220;42.502;24.188;2023-02-01T12:58:58;95216.44;;;5.95;87.30
8366;BME280;4220;42.502;24.188;2023-02-01T13:01:31;95242.28;;;6.12;88.45
8366;BME280;4220;42.502;24.188;2023-02-01T13:04:05;95238.06;;;6.18;87.68
8366;BME280;4220;42.502;24.188;2023-02-01T13:06:39;95245.34;;;6.16;90.17
8366;BME280;4220;42.502;24.188;2023-02-01T13:09:15;95221.03;;;6.14;89.43
8366;BME280;4220;42.502;24.188;2023-02-01T13:11:47;95234.44;;;6.46;88.17
8366;BME280;4220;42.502;24.188;2023-02-01T13:14:25;95253.31;;;6.50;87.11
8366;BME280;4220;42.502;24.188;2023-02-01T13:16:59;95223.25;;;6.38;88.43
8366;BME280;4220;42.502;24.188;2023-02-01T13:19:29;95230.69;;;6.34;86.96
8366;BME280;4220;42.502;24.188;2023-02-01T13:22:03;95229.09;;;6.33;86.98
8366;BME280;4220;42.502;24.188;2023-02-01T13:24:36;95217.03;;;6.24;87.41
8366;BME280;4220;42.502;24.188;2023-02-01T13:27:10;95233.19;;;6.42;88.08
8366;BME280;4220;42.502;24.188;2023-02-01T13:29:43;95223.63;;;6.35;87.78
8366;BME280;4220;42.502;24.188;2023-02-01T13:35:24;95209.59;;;6.28;86.44
8366;BME280;4220;42.502;24.188;2023-02-01T13:38:24;95215.47;;;6.30;88.87
8366;BME280;4220;42.502;24.188;2023-02-01T13:41:07;95223.84;;;6.68;87.24
8366;BME280;4220;42.502;24.188;2023-02-01T13:43:40;95233.88;;;6.51;85.27